CheckWX is a tool to help pilots better visualize weather data.  It is not intended as a substitute for an official pre-flight weather briefing.

05:48:00 UTC

HKML TAF
Malindi Airport
Malindi, Kenya
TAF HKML 240500Z 2406/2506 18015KT 9999 FEW023 TEMPO 2500/2506 24005KT -RA SCT019 BKN080

May-24@
06:00 UTC

May-24 @ 06:00 UTC

May-25@
06:00 UTC

May-25 @ 06:00 UTC

TAF HKML 240500Z 2406/2506 18015KT 9999 FEW023
Wind
  • 180° at 15 KTS
Cloud Levels
  • Few at 2,300' AGL

May-25@
00:00 UTC

May-25 @ 00:00 UTC

May-25@
06:00 UTC

May-25 @ 06:00 UTC

TEMPO 2500/2506 24005KT -RA SCT019 BKN080

Temporary

Temporary Changes expected for less than half the time period

Wind
  • 240° at 5 KTS
Conditions
Light Rain
Cloud Levels
  • Scattered at 1,900' AGL
  • Broken at 8,000' AGL